Cedar Lake, Michigan
Current Conditions -  °F | °C
As of 1:33 PM on Wednesday 26 Nov 2014 (Local Time) from KAMN Reporting Station
Overcast Overcast  
Wind Chill: 30°   Ceiling: 3000
Heat Index: 30°   Visibility: 10mi
Dew Point: 22°   Wind: 0mph
Humidity: 73%   Direction: NA
Pressure: 30.13"   Gusts: NA
Location:  43.41°N, 84.97°W
Report Text: KAMN 261833Z AUTO 00000KT 10SM OVC030 M01/M05 A3013 RMK AO2 T10121055
Loading
Personal Weather Stations






























Interactive Weather Map New forecast layout! Learn more

10-Day Weather Forecast

Advertisements
Track Severe Weather on mobile